Nederland, CO

9:23 AM MST on November 24, 2014 (GMT -0700)
Jeffco | Change Station
CLOSE
Current Station
Airport
Location: Broomfield,
Elevation: 5656 ft
Nearby Weather Stations
Active Advisory: High Wind Watch Active Notice: Local Storm Report

Elev 5656 ft 39.90 °N, 105.10 °W | Updated 34 minutes ago

Overcast
Overcast
36 °F
Feels Like 24 °F
N
23
Wind Variable Wind from West
Gusts 34 mph

Today
High -- | Low -- °F
--% Chance of Precip.
Yesterday
High -- | Low -- °F
Precip. -- in
6:57 AM 4:39 PM
Waxing Crescent, 6% visible
Pressure 29.91 in
Visibility 50.0 miles
Clouds Scattered Clouds 7000 ft
Mostly Cloudy 10000 ft
Windchill 24 °F
Dew Point 9 °F
Humidity 33%
Rainfall 0.00 in
Snow Depth Not available.
UV 1 out of 12
Pollen .10 out of 12
Air Quality Not available.
Flu Activity Not available.
METAR KBJC 241549Z 27020G30KT 50SM SCT070 BKN100 02/M13 A2991

More Conditions Fewer Conditions

Pressure 29.91 in
Visibility 50.0 miles
Clouds Scattered Clouds 7000 ft
Mostly Cloudy 10000 ft
Windchill 24 °F
Dew Point 9 °F
Humidity 33%
Rainfall 0.00 in
Snow Depth Not available.
UV 1 out of 12
Pollen .10 out of 12
Air Quality Not available.
Flu Activity Not available.
METAR KBJC 241549Z 27020G30KT 50SM SCT070 BKN100 02/M13 A2991

More Conditions Fewer Conditions

Nowcast | as of 9:20 am MST on November 24, 2014

West winds at 20 to 30 mph will continue in the Front Range foothills through noon...with gusts to 45 mph in wind prone areas. The winds will occasionally spill onto the plains in areas west of Interstate 25. Light snow will continue over the higher foothills where minor snow accumulations can be expected.

×

10-Day Weather Forecast

Almanac

Astronomy

Nov. 24, 2014 Rise Set
Actual Time
Civil Twilight
Nautical Twilight
Astronomical Twilight
Moon
Length of Visible Light
Length of Day
Tomorrow will be .
, % of the Moon is Illuminated

Today's Extremes

State Highs State Lows

Community

WunderPhotos

Upload Photos

1,773,364 photos uploaded!

WunderBlogs® & News

Nearby

Air Quality

  Air Quality AQ Index Pollutant
Not available.

Snow Depth

Station Depth Elevation

Earthquake Activity

City Distance Mag. Time & Date
Minimum magnitude displayed is 2.5.

Coastal Water Temperatures

Place Temperature

Nearby Weather Stations